createdAt,value
2022-12-15T06:49:11.950Z,89.11
2022-12-15T06:51:58.354Z,89.11
2022-12-15T06:54:45.064Z,91.31
2022-12-15T06:57:30.651Z,91.38
2022-12-15T07:00:16.626Z,91.08
2022-12-15T07:03:07.175Z,90.88
2022-12-15T07:06:05.776Z,90.24
2022-12-15T07:08:53.960Z,90.38
2022-12-15T07:11:40.842Z,90.82
2022-12-15T07:14:28.155Z,90.51
2022-12-15T07:17:14.834Z,90.68
2022-12-15T07:20:02.096Z,91.18
2022-12-15T07:22:52.355Z,91.44
2022-12-15T07:25:38.338Z,90.83
2022-12-15T07:28:25.953Z,90.99
2022-12-15T07:31:12.778Z,91.00
2022-12-15T07:33:59.390Z,90.62
2022-12-15T07:36:51.491Z,90.28
2022-12-15T07:39:37.961Z,89.86
2022-12-15T07:42:23.621Z,89.50
2022-12-15T07:45:15.495Z,89.53
2022-12-15T07:48:00.990Z,89.86
2022-12-15T07:50:47.026Z,90.00
2022-12-15T07:53:36.963Z,90.12
2022-12-15T07:56:22.402Z,89.89
2022-12-15T07:59:08.999Z,89.62
2022-12-15T08:01:54.753Z,90.08
2022-12-15T08:04:41.052Z,90.08
2022-12-15T08:07:26.177Z,89.81
2022-12-15T08:10:11.724Z,89.85
2022-12-15T08:12:57.363Z,89.40
2022-12-15T08:15:43.260Z,89.35
2022-12-15T08:18:29.502Z,89.13
2022-12-15T08:21:15.171Z,88.86
2022-12-15T08:24:01.131Z,88.55
2022-12-15T08:26:50.092Z,87.61
2022-12-15T08:29:52.980Z,87.14
2022-12-15T08:32:40.505Z,86.70
2022-12-15T08:35:55.128Z,86.51
2022-12-15T08:38:42.746Z,85.90
2022-12-15T08:41:30.554Z,85.59
2022-12-15T08:44:17.096Z,85.49
2022-12-15T08:47:02.789Z,84.65
2022-12-15T08:49:50.274Z,85.04
2022-12-15T08:52:35.799Z,85.27
2022-12-15T08:55:23.677Z,85.13
2022-12-15T08:58:09.030Z,85.15
2022-12-15T09:01:01.184Z,85.09
2022-12-15T09:03:47.417Z,84.89
2022-12-15T09:06:34.839Z,85.06
2022-12-15T09:09:20.550Z,85.36
2022-12-15T09:12:06.617Z,85.40
2022-12-15T09:14:51.937Z,85.49
2022-12-15T09:17:39.543Z,85.89
2022-12-15T09:20:25.036Z,85.85
2022-12-15T09:23:14.428Z,85.79
2022-12-15T09:26:11.067Z,85.60
2022-12-15T09:28:56.696Z,85.94
2022-12-15T09:31:44.694Z,85.94
2022-12-15T09:34:30.178Z,85.70
2022-12-15T09:37:15.877Z,85.79
2022-12-15T09:40:01.526Z,85.52
2022-12-15T09:43:04.914Z,85.49
2022-12-15T09:46:16.565Z,85.07
2022-12-15T09:49:05.396Z,84.84
2022-12-15T09:51:56.265Z,85.55
2022-12-15T09:54:43.528Z,85.49
2022-12-15T09:57:45.296Z,85.45
2022-12-15T10:00:38.713Z,85.07
2022-12-15T10:03:36.421Z,85.28
2022-12-15T10:06:50.815Z,85.53
2022-12-15T10:09:37.299Z,85.69
2022-12-15T10:12:30.128Z,85.80
2022-12-15T10:15:25.293Z,85.21
2022-12-15T10:18:23.001Z,84.82
2022-12-15T10:21:14.751Z,84.66
2022-12-15T10:25:09.312Z,84.43
2022-12-15T10:28:08.265Z,85.30
2022-12-15T10:31:04.820Z,85.15
2022-12-15T10:33:58.298Z,83.89
2022-12-15T10:36:51.133Z,82.74
2022-12-15T10:39:42.074Z,81.56
2022-12-15T10:42:29.820Z,80.68
2022-12-15T10:45:33.947Z,80.23
2022-12-15T10:48:20.391Z,80.04
2022-12-15T10:51:25.987Z,79.84
2022-12-15T10:54:15.773Z,79.96
2022-12-15T10:57:16.056Z,79.56
2022-12-15T11:00:13.927Z,80.19
2022-12-15T11:03:00.483Z,79.45
2022-12-15T11:05:55.277Z,78.17
2022-12-15T11:08:42.726Z,75.77
2022-12-15T11:11:52.842Z,71.99
2022-12-15T11:14:49.190Z,61.50
2022-12-15T11:17:40.994Z,65.65
2022-12-15T11:20:34.879Z,67.87
2022-12-15T11:23:51.105Z,69.58
2022-12-15T11:26:43.865Z,70.80
2022-12-15T11:29:54.219Z,72.42
2022-12-15T11:32:42.835Z,72.98
2022-12-15T11:35:46.556Z,73.88
2022-12-15T11:38:37.778Z,73.73
2022-12-15T11:41:57.929Z,73.90
2022-12-15T11:44:52.844Z,73.53
2022-12-15T11:47:44.944Z,74.08
2022-12-15T11:50:56.361Z,74.15
2022-12-15T11:54:14.991Z,73.75
2022-12-15T11:57:42.702Z,74.26
2022-12-15T12:00:31.967Z,75.10
2022-12-15T12:03:17.431Z,75.21
2022-12-15T12:06:39.779Z,75.75
2022-12-15T12:09:37.218Z,76.10
2022-12-15T12:12:22.929Z,77.03
2022-12-15T12:15:11.381Z,76.76
2022-12-15T12:18:04.505Z,76.75
2022-12-15T12:20:58.776Z,77.11
2022-12-15T12:23:50.068Z,76.58
2022-12-15T12:26:40.831Z,76.50
2022-12-15T12:29:26.021Z,75.42
2022-12-15T12:32:16.040Z,74.71
2022-12-15T12:35:32.323Z,73.92
2022-12-15T12:38:25.188Z,73.80
2022-12-15T12:41:19.032Z,74.25
2022-12-15T12:44:27.591Z,74.21
2022-12-15T12:47:26.468Z,73.68
2022-12-15T12:50:16.207Z,72.57
2022-12-15T12:53:03.150Z,72.14
2022-12-15T12:55:48.407Z,71.01
2022-12-15T12:58:41.403Z,68.62
2022-12-15T13:01:27.138Z,58.84
2022-12-15T13:04:30.955Z,61.11
